Time;durP1;ratioP1;P1;durP2;ratioP2;P2;SDS_P1;SDS_P2;PMS_P1;PMS_P2;Temp;Humidity;BMP_temperature;BMP_pressure;BME280_temperature;BME280_humidity;BME280_pressure;Samples;Min_cycle;Max_cycle;Signal;HPM_P1;HPM_P2
2021/11/03 00:00:20;;;;;;;12.30;7.85;;;3.20;99.90;;;;;;5082696;28;20044;-59
2021/11/03 00:02:47;;;;;;;13.90;8.32;;;3.10;99.90;;;;;;5082966;28;20130;-59
2021/11/03 00:05:16;;;;;;;10.82;7.55;;;3.10;99.90;;;;;;5080974;28;20131;-59
2021/11/03 00:07:43;;;;;;;20.45;8.38;;;3.10;99.90;;;;;;5063731;28;20488;-59
2021/11/03 00:10:13;;;;;;;16.08;8.68;;;3.10;99.90;;;;;;5063877;28;20265;-59
2021/11/03 00:12:40;;;;;;;15.43;7.90;;;3.10;99.90;;;;;;5065318;28;20127;-59
2021/11/03 00:15:07;;;;;;;14.30;8.02;;;3.10;99.90;;;;;;5080537;28;20504;-59
2021/11/03 00:17:34;;;;;;;16.90;7.82;;;3.10;99.90;;;;;;5082472;28;20128;-59
2021/11/03 00:20:03;;;;;;;14.32;9.18;;;3.10;99.90;;;;;;5081558;28;20130;-60
2021/11/03 00:22:30;;;;;;;14.13;7.50;;;3.00;99.90;;;;;;5082618;28;20131;-59
2021/11/03 00:24:57;;;;;;;14.85;7.75;;;3.00;99.90;;;;;;5082965;28;20063;-59
2021/11/03 00:27:23;;;;;;;12.80;7.60;;;2.90;99.90;;;;;;5082891;28;20075;-59
2021/11/03 00:29:50;;;;;;;15.35;8.05;;;2.90;99.90;;;;;;5082107;28;20068;-59
2021/11/03 00:32:17;;;;;;;13.25;7.43;;;2.90;99.90;;;;;;5082382;28;20531;-61
2021/11/03 00:34:44;;;;;;;15.75;8.00;;;2.90;99.90;;;;;;5082602;28;20079;-59
2021/11/03 00:37:11;;;;;;;12.63;7.43;;;2.90;99.90;;;;;;5082739;28;20112;-59
2021/11/03 00:39:37;;;;;;;11.35;7.22;;;2.80;99.90;;;;;;5082601;28;20047;-59
2021/11/03 00:42:04;;;;;;;14.43;7.47;;;2.80;99.90;;;;;;5082612;28;20135;-59
2021/11/03 00:44:31;;;;;;;19.05;7.60;;;2.80;99.90;;;;;;5082622;28;20044;-60
2021/11/03 00:46:58;;;;;;;16.55;8.88;;;2.80;99.90;;;;;;5082697;28;20080;-59
2021/11/03 00:49:25;;;;;;;15.50;9.52;;;2.80;99.90;;;;;;5080656;28;20076;-59
2021/11/03 00:51:52;;;;;;;12.82;8.32;;;2.80;99.90;;;;;;5082453;28;20075;-60
2021/11/03 00:54:18;;;;;;;13.80;7.50;;;2.70;99.90;;;;;;5082636;28;20126;-59
2021/11/03 00:56:49;;;;;;;13.20;7.63;;;2.70;99.90;;;;;;5081536;28;20067;-59
2021/11/03 00:59:16;;;;;;;15.38;7.88;;;2.70;99.90;;;;;;5080273;28;20059;-59
2021/11/03 01:01:43;;;;;;;11.00;7.50;;;2.70;99.90;;;;;;5083087;28;20048;-59
2021/11/03 01:04:14;;;;;;;12.52;6.90;;;2.60;99.90;;;;;;5079879;28;20109;-59
2021/11/03 01:06:41;;;;;;;15.57;9.10;;;2.60;99.90;;;;;;5081770;28;20076;-60
2021/11/03 01:09:08;;;;;;;15.85;7.85;;;2.70;99.90;;;;;;5082338;28;20456;-59
2021/11/03 01:11:36;;;;;;;14.13;7.55;;;2.70;99.90;;;;;;5082441;28;20100;-60
2021/11/03 01:14:04;;;;;;;9.00;5.93;;;2.70;99.90;;;;;;5082028;28;20071;-60
2021/11/03 01:16:31;;;;;;;13.50;7.93;;;2.70;99.90;;;;;;5082196;28;20072;-59
2021/11/03 01:18:57;;;;;;;13.55;7.22;;;2.70;99.90;;;;;;5079634;28;20071;-59
2021/11/03 01:21:24;;;;;;;12.85;7.50;;;2.70;99.90;;;;;;5081934;28;20098;-60
2021/11/03 01:23:52;;;;;;;19.23;7.38;;;2.70;99.90;;;;;;5081975;28;20121;-59
2021/11/03 01:26:20;;;;;;;10.85;6.60;;;2.70;99.90;;;;;;5082154;28;20127;-59
2021/11/03 01:28:47;;;;;;;14.32;7.03;;;2.70;99.90;;;;;;5081216;28;20048;-60
2021/11/03 01:31:14;;;;;;;11.80;7.55;;;2.60;99.90;;;;;;5080487;28;20471;-60
2021/11/03 01:33:42;;;;;;;11.02;6.95;;;2.60;99.90;;;;;;5080798;28;20052;-59
2021/11/03 01:36:09;;;;;;;16.67;6.70;;;2.50;99.90;;;;;;5080236;28;20048;-59
2021/11/03 01:38:36;;;;;;;14.00;7.05;;;2.50;99.90;;;;;;5084832;28;20139;-59
2021/11/03 01:41:03;;;;;;;13.02;6.25;;;2.50;99.90;;;;;;5085223;28;20073;-60
2021/11/03 01:43:46;;;;;;;12.35;8.55;;;2.40;99.90;;;;;;5084150;28;20044;-59
2021/11/03 01:46:23;;;;;;;11.82;6.65;;;2.40;99.90;;;;;;5084862;28;20155;-59
2021/11/03 01:48:58;;;;;;;11.65;6.90;;;2.40;99.90;;;;;;5083896;28;20119;-59
2021/11/03 01:51:30;;;;;;;11.10;7.55;;;2.50;99.90;;;;;;5063399;28;20161;-59
2021/11/03 01:53:58;;;;;;;10.10;6.32;;;2.50;99.90;;;;;;5079259;28;20079;-59
2021/11/03 01:56:24;;;;;;;12.40;7.38;;;2.50;99.90;;;;;;5067286;28;20171;-59
2021/11/03 01:59:13;;;;;;;12.75;7.47;;;2.40;99.90;;;;;;5065897;28;20120;-59
2021/11/03 02:01:40;;;;;;;10.85;6.25;;;2.40;99.90;;;;;;5084838;28;20052;-59
2021/11/03 02:04:07;;;;;;;12.05;6.78;;;2.30;99.90;;;;;;5082645;28;20078;-60
2021/11/03 02:06:34;;;;;;;12.75;6.82;;;2.30;99.90;;;;;;5066248;28;20074;-60
2021/11/03 02:09:01;;;;;;;11.80;7.00;;;2.30;99.90;;;;;;5084113;28;20144;-60
2021/11/03 02:11:28;;;;;;;11.68;7.03;;;2.30;99.90;;;;;;5084116;28;20047;-60
2021/11/03 02:13:55;;;;;;;11.18;6.78;;;2.40;99.90;;;;;;5083443;28;20058;-59
2021/11/03 02:16:22;;;;;;;11.40;6.70;;;2.30;99.90;;;;;;5083039;28;20541;-59
2021/11/03 02:18:49;;;;;;;10.00;6.30;;;2.30;99.90;;;;;;5062478;28;20052;-58
2021/11/03 02:21:37;;;;;;;12.88;7.38;;;2.40;99.90;;;;;;5070507;28;20086;-62
2021/11/03 02:24:09;;;;;;;10.38;8.15;;;2.30;99.90;;;;;;5086738;28;20484;-59
2021/11/03 02:26:39;;;;;;;13.52;6.47;;;2.20;99.90;;;;;;5087491;28;20135;-59
2021/11/03 02:29:07;;;;;;;10.88;6.75;;;2.20;99.90;;;;;;5068974;28;20712;-59
2021/11/03 02:31:39;;;;;;;12.90;6.35;;;2.20;99.90;;;;;;5088002;28;20086;-59
2021/11/03 02:34:08;;;;;;;11.45;6.50;;;2.10;99.90;;;;;;5089592;28;20052;-59
2021/11/03 02:36:35;;;;;;;11.00;5.78;;;2.10;99.90;;;;;;5089801;28;20205;-59
2021/11/03 02:39:05;;;;;;;11.68;7.15;;;2.10;99.90;;;;;;5089860;28;20615;-59
2021/11/03 02:41:33;;;;;;;10.20;5.80;;;2.10;99.90;;;;;;5072601;28;20474;-59
2021/11/03 02:44:09;;;;;;;11.00;7.13;;;2.20;99.90;;;;;;5072150;28;20487;-59
2021/11/03 02:46:36;;;;;;;10.88;6.25;;;2.20;99.90;;;;;;5086118;28;20459;-59
2021/11/03 02:49:02;;;;;;;11.13;6.55;;;2.20;99.90;;;;;;5086560;28;20090;-59
2021/11/03 02:51:35;;;;;;;9.05;5.50;;;2.20;99.90;;;;;;5086774;28;20127;-59
2021/11/03 02:54:11;;;;;;;9.07;6.70;;;2.10;99.90;;;;;;5086964;28;20087;-59
2021/11/03 02:56:41;;;;;;;8.57;5.57;;;2.10;99.90;;;;;;5089445;28;20048;-59
2021/11/03 02:59:08;;;;;;;12.52;6.05;;;2.10;99.90;;;;;;5086165;28;20075;-59
2021/11/03 03:01:42;;;;;;;13.63;6.28;;;2.20;99.90;;;;;;5084432;28;20087;-59
2021/11/03 03:04:15;;;;;;;9.88;6.68;;;2.20;99.90;;;;;;5085434;28;20078;-59
2021/11/03 03:06:41;;;;;;;11.02;6.53;;;2.20;99.90;;;;;;5068085;28;20112;-59
2021/11/03 03:09:09;;;;;;;18.55;7.55;;;2.10;99.90;;;;;;5084624;28;20120;-60
2021/11/03 03:11:37;;;;;;;11.25;6.63;;;2.10;99.90;;;;;;5085776;28;20048;-59
2021/11/03 03:14:04;;;;;;;13.30;6.18;;;2.10;99.90;;;;;;5085614;28;20561;-59
2021/11/03 03:16:31;;;;;;;12.60;6.43;;;2.10;99.90;;;;;;5086404;28;20115;-59
2021/11/03 03:18:58;;;;;;;14.38;7.30;;;2.10;99.90;;;;;;5085106;28;20067;-59
2021/11/03 03:21:26;;;;;;;8.88;5.35;;;2.10;99.90;;;;;;5081859;28;20551;-59
2021/11/03 03:23:54;;;;;;;11.52;6.35;;;2.00;99.90;;;;;;5085995;28;20131;-60
2021/11/03 03:26:22;;;;;;;10.60;5.90;;;2.10;99.90;;;;;;5086287;28;20123;-59
2021/11/03 03:28:49;;;;;;;14.98;5.70;;;2.10;99.90;;;;;;5085222;28;20087;-59
2021/11/03 03:31:16;;;;;;;10.38;5.35;;;2.10;99.90;;;;;;5084789;28;20126;-59
2021/11/03 03:33:43;;;;;;;9.65;5.18;;;2.10;99.90;;;;;;5084909;28;20123;-59
2021/11/03 03:36:10;;;;;;;17.00;5.82;;;2.10;99.90;;;;;;5078094;28;20072;-59
2021/11/03 03:38:37;;;;;;;9.07;5.25;;;2.00;99.90;;;;;;5085673;28;20080;-59
2021/11/03 03:41:04;;;;;;;12.63;6.15;;;2.00;99.90;;;;;;5083252;28;20481;-59
2021/11/03 03:43:31;;;;;;;11.18;5.90;;;2.00;99.90;;;;;;5084493;28;20056;-60
2021/11/03 03:45:58;;;;;;;10.63;5.57;;;2.00;99.90;;;;;;5085164;28;20084;-59
2021/11/03 03:48:25;;;;;;;8.02;5.13;;;2.00;99.90;;;;;;5072172;28;20060;-59
2021/11/03 03:50:54;;;;;;;10.02;5.72;;;1.90;99.90;;;;;;5079522;28;20047;-59
2021/11/03 03:53:24;;;;;;;9.48;5.82;;;1.90;99.90;;;;;;5085580;28;20054;-59
2021/11/03 03:56:08;;;;;;;8.57;5.47;;;1.90;99.90;;;;;;5086365;28;21029;-59
2021/11/03 03:58:36;;;;;;;10.15;5.28;;;1.90;99.90;;;;;;5083235;28;20499;-59
2021/11/03 04:01:03;;;;;;;9.07;5.30;;;1.80;99.90;;;;;;5085767;28;20529;-60
2021/11/03 04:03:31;;;;;;;10.15;5.22;;;1.70;99.90;;;;;;5085325;28;20127;-59
2021/11/03 04:05:59;;;;;;;9.57;5.85;;;1.70;99.90;;;;;;5085019;28;20114;-59
2021/11/03 04:08:26;;;;;;;10.57;6.35;;;1.70;99.90;;;;;;5085163;28;20511;-59
2021/11/03 04:10:53;;;;;;;15.63;5.57;;;1.70;99.90;;;;;;5084141;28;20063;-59
2021/11/03 04:13:20;;;;;;;9.32;5.22;;;1.70;99.90;;;;;;5084612;28;20109;-59
2021/11/03 04:15:51;;;;;;;9.50;5.40;;;1.70;99.90;;;;;;5085765;28;20123;-60
2021/11/03 04:18:17;;;;;;;11.45;5.15;;;1.80;99.90;;;;;;5084658;28;20051;-59
2021/11/03 04:20:44;;;;;;;10.45;5.90;;;1.80;99.90;;;;;;5083070;28;20093;-59
2021/11/03 04:23:11;;;;;;;9.00;5.22;;;1.80;99.90;;;;;;5085399;28;20533;-59
2021/11/03 04:25:38;;;;;;;7.25;4.80;;;1.80;99.90;;;;;;5067400;28;20631;-59
2021/11/03 04:28:05;;;;;;;7.47;4.30;;;1.80;99.90;;;;;;5083962;28;20831;-59
2021/11/03 04:30:32;;;;;;;8.40;5.25;;;1.80;99.90;;;;;;5066287;28;20044;-59
2021/11/03 04:32:59;;;;;;;10.88;4.78;;;1.80;99.90;;;;;;5083500;28;20060;-59
2021/11/03 04:35:25;;;;;;;9.48;4.53;;;1.80;99.90;;;;;;5084615;28;20083;-58
2021/11/03 04:37:52;;;;;;;10.73;4.32;;;1.80;99.90;;;;;;5084810;28;20083;-59
2021/11/03 04:40:20;;;;;;;10.07;4.75;;;1.80;99.90;;;;;;5083436;28;20048;-58
2021/11/03 04:42:46;;;;;;;6.85;4.75;;;1.80;99.90;;;;;;5084628;28;20086;-59
2021/11/03 04:45:13;;;;;;;11.10;5.47;;;1.80;99.90;;;;;;5082846;28;20135;-59
2021/11/03 04:47:40;;;;;;;11.18;5.38;;;1.80;99.90;;;;;;5086539;28;20052;-59
2021/11/03 04:50:11;;;;;;;8.10;4.68;;;1.80;99.90;;;;;;5085382;28;20119;-59
2021/11/03 04:52:38;;;;;;;10.13;4.72;;;1.90;99.90;;;;;;5085016;28;20075;-59
2021/11/03 04:55:05;;;;;;;9.40;4.72;;;1.80;99.90;;;;;;5086621;28;20083;-59
2021/11/03 04:57:32;;;;;;;8.95;4.57;;;1.80;99.90;;;;;;5068809;28;20135;-59
2021/11/03 05:00:04;;;;;;;9.93;5.35;;;1.80;99.90;;;;;;5084526;28;20102;-59
2021/11/03 05:02:31;;;;;;;10.23;4.82;;;1.70;99.90;;;;;;5086446;28;20124;-63
2021/11/03 05:04:58;;;;;;;11.38;6.30;;;1.70;99.90;;;;;;5086434;28;20079;-59
2021/11/03 05:07:25;;;;;;;7.88;4.47;;;1.60;99.90;;;;;;5084706;28;20076;-58
2021/11/03 05:09:52;;;;;;;9.57;4.45;;;1.60;99.90;;;;;;5086441;28;20101;-58
2021/11/03 05:12:18;;;;;;;8.38;5.00;;;1.60;99.90;;;;;;5085491;28;20075;-58
2021/11/03 05:14:45;;;;;;;10.10;4.65;;;1.70;99.90;;;;;;5085424;28;20130;-58
2021/11/03 05:17:12;;;;;;;14.65;5.53;;;1.70;99.90;;;;;;5084438;28;20107;-61
2021/11/03 05:19:39;;;;;;;7.50;3.95;;;1.70;99.90;;;;;;5086034;28;20127;-59
2021/11/03 05:22:07;;;;;;;8.98;5.30;;;1.70;99.90;;;;;;5085781;28;20123;-58
2021/11/03 05:24:34;;;;;;;8.55;4.43;;;1.60;99.90;;;;;;5086328;28;20127;-59
2021/11/03 05:27:00;;;;;;;9.25;4.65;;;1.60;99.90;;;;;;5086054;28;20682;-59
2021/11/03 05:29:28;;;;;;;8.40;4.45;;;1.60;99.90;;;;;;5085214;28;20083;-59
2021/11/03 05:31:54;;;;;;;12.98;5.78;;;1.60;99.90;;;;;;5085442;28;20076;-58
2021/11/03 05:34:21;;;;;;;10.10;4.35;;;1.60;99.90;;;;;;5085605;28;20055;-59
2021/11/03 05:36:48;;;;;;;8.52;4.57;;;1.50;99.90;;;;;;5085865;28;20471;-59
2021/11/03 05:39:16;;;;;;;13.65;5.22;;;1.60;99.90;;;;;;5086124;28;20082;-59
2021/11/03 05:41:44;;;;;;;11.90;5.63;;;1.60;99.90;;;;;;5084599;28;20056;-59
2021/11/03 05:44:13;;;;;;;7.90;4.30;;;1.60;99.90;;;;;;5083861;28;20044;-58
2021/11/03 05:46:42;;;;;;;8.00;4.13;;;1.60;99.90;;;;;;5084202;28;20117;-59
2021/11/03 05:49:09;;;;;;;9.75;4.53;;;1.60;99.90;;;;;;5070232;28;20654;-59
2021/11/03 05:51:39;;;;;;;10.55;4.65;;;1.60;99.90;;;;;;5063588;28;20517;-59
2021/11/03 05:54:06;;;;;;;9.10;4.78;;;1.60;99.90;;;;;;5064788;28;20164;-59
2021/11/03 05:56:33;;;;;;;9.43;5.85;;;1.60;99.90;;;;;;5067917;28;20119;-59
2021/11/03 05:59:02;;;;;;;5.25;3.80;;;1.70;99.90;;;;;;5077280;28;20117;-58
2021/11/03 06:01:29;;;;;;;6.93;3.38;;;1.80;99.90;;;;;;5087753;28;20101;-58
2021/11/03 06:03:56;;;;;;;4.85;3.28;;;1.90;99.90;;;;;;5072376;28;20052;-58
2021/11/03 06:06:22;;;;;;;5.25;2.90;;;2.10;99.90;;;;;;5062183;28;20128;-58
2021/11/03 06:08:50;;;;;;;6.50;3.67;;;2.20;99.90;;;;;;5079912;28;20076;-58
2021/11/03 06:11:18;;;;;;;3.65;2.17;;;2.30;99.90;;;;;;5079769;28;20075;-58
2021/11/03 06:13:45;;;;;;;5.40;2.85;;;2.40;99.90;;;;;;5079254;28;20128;-58
2021/11/03 06:16:13;;;;;;;4.30;2.67;;;2.50;99.90;;;;;;5063549;28;20076;-58
2021/11/03 06:18:39;;;;;;;5.40;3.35;;;2.50;99.90;;;;;;5061246;28;20055;-57
2021/11/03 06:21:06;;;;;;;5.43;3.65;;;2.60;99.90;;;;;;5078635;28;20127;-58
2021/11/03 06:23:34;;;;;;;10.65;5.53;;;2.60;99.90;;;;;;5079556;28;20523;-58
2021/11/03 06:26:01;;;;;;;8.38;4.55;;;2.70;99.90;;;;;;5080991;28;20063;-58
2021/11/03 06:28:28;;;;;;;6.00;3.92;;;2.70;99.90;;;;;;5080105;28;20487;-58
2021/11/03 06:30:55;;;;;;;6.65;4.22;;;2.70;99.90;;;;;;5081460;28;20098;-58
2021/11/03 06:33:22;;;;;;;6.90;3.08;;;2.70;99.90;;;;;;5079122;28;20044;-58
2021/11/03 06:35:50;;;;;;;7.07;3.78;;;2.70;99.90;;;;;;5080395;28;20560;-58
2021/11/03 06:38:17;;;;;;;4.75;2.97;;;2.70;99.90;;;;;;5079380;28;20076;-58
2021/11/03 06:40:44;;;;;;;5.93;3.00;;;2.70;99.90;;;;;;5045783;28;20048;-58
2021/11/03 06:43:11;;;;;;;3.38;2.35;;;2.70;99.90;;;;;;5078476;28;20137;-58
2021/11/03 06:45:41;;;;;;;3.90;2.83;;;2.70;99.90;;;;;;5080680;28;20126;-58
2021/11/03 06:48:08;;;;;;;3.95;2.13;;;2.70;99.90;;;;;;5078461;28;20098;-58
2021/11/03 06:50:36;;;;;;;4.15;2.40;;;2.70;99.90;;;;;;5078623;28;20649;-57
2021/11/03 06:53:04;;;;;;;5.95;2.63;;;2.70;99.90;;;;;;5079044;28;20123;-58
2021/11/03 06:55:31;;;;;;;5.47;2.38;;;2.70;99.90;;;;;;5080177;28;20127;-58
2021/11/03 06:57:58;;;;;;;5.75;3.22;;;2.80;99.90;;;;;;5080272;28;20052;-58
2021/11/03 07:00:31;;;;;;;5.28;3.25;;;2.80;99.90;;;;;;5075215;28;20135;-58
2021/11/03 07:03:00;;;;;;;5.65;3.00;;;2.80;99.90;;;;;;5071504;28;20053;-58
2021/11/03 07:05:31;;;;;;;4.30;2.72;;;2.80;99.90;;;;;;5078761;28;20055;-58
2021/11/03 07:08:00;;;;;;;4.05;2.80;;;2.80;99.90;;;;;;5061606;28;20154;-58
2021/11/03 07:10:36;;;;;;;4.97;2.80;;;2.80;99.90;;;;;;5080230;28;20620;-58
2021/11/03 07:13:03;;;;;;;4.80;2.97;;;2.90;99.90;;;;;;5080278;28;20119;-58
2021/11/03 07:15:30;;;;;;;4.18;2.40;;;2.90;99.90;;;;;;5080208;28;20088;-58
2021/11/03 07:17:57;;;;;;;4.05;2.70;;;2.90;99.90;;;;;;5079120;28;20558;-58
2021/11/03 07:20:24;;;;;;;4.28;2.22;;;3.00;99.90;;;;;;5074503;28;20127;-58
2021/11/03 07:22:50;;;;;;;5.03;2.70;;;3.00;99.90;;;;;;5065246;28;20048;-59
2021/11/03 07:25:19;;;;;;;3.65;2.17;;;3.10;99.90;;;;;;5079573;28;20083;-59
2021/11/03 07:27:46;;;;;;;3.20;2.17;;;3.20;99.90;;;;;;5080488;28;20624;-58
2021/11/03 07:30:14;;;;;;;3.05;1.92;;;3.20;99.90;;;;;;5079691;28;20296;-58
2021/11/03 07:32:41;;;;;;;3.60;2.30;;;3.20;99.90;;;;;;5079747;28;20044;-59
2021/11/03 07:35:08;;;;;;;4.18;2.63;;;3.30;99.90;;;;;;5079544;28;20048;-58
2021/11/03 07:37:35;;;;;;;4.07;2.38;;;3.40;99.90;;;;;;5078958;28;20044;-58
2021/11/03 07:40:07;;;;;;;3.45;2.45;;;3.40;99.90;;;;;;5080193;28;20098;-59
2021/11/03 07:42:34;;;;;;;2.85;2.05;;;3.40;99.90;;;;;;5079111;28;20123;-58
2021/11/03 07:45:01;;;;;;;4.22;3.08;;;3.40;99.90;;;;;;5079510;28;20083;-58
2021/11/03 07:47:27;;;;;;;3.28;2.38;;;3.40;99.90;;;;;;5036724;28;1196654;-58
2021/11/03 07:49:54;;;;;;;3.72;2.45;;;3.50;99.90;;;;;;5080939;28;20158;-58
2021/11/03 07:52:21;;;;;;;3.92;2.42;;;3.50;99.90;;;;;;5080321;28;20122;-58
2021/11/03 07:54:48;;;;;;;3.85;2.38;;;3.60;99.90;;;;;;5080713;28;20140;-58
2021/11/03 07:57:15;;;;;;;2.83;1.83;;;3.50;99.90;;;;;;5081011;28;20131;-59
2021/11/03 07:59:42;;;;;;;4.07;2.28;;;3.60;99.90;;;;;;5079265;28;20074;-58
2021/11/03 08:02:09;;;;;;;4.20;2.55;;;3.60;99.90;;;;;;5062453;28;20415;-59
2021/11/03 08:04:36;;;;;;;2.75;2.13;;;3.70;99.90;;;;;;5080138;28;20060;-58
2021/11/03 08:07:03;;;;;;;3.67;2.70;;;3.70;99.90;;;;;;5080108;28;20129;-58
2021/11/03 08:09:30;;;;;;;3.20;1.98;;;3.80;99.90;;;;;;5080241;28;20151;-58
2021/11/03 08:11:59;;;;;;;4.78;3.17;;;3.90;99.90;;;;;;5080092;28;20551;-58
2021/11/03 08:14:29;;;;;;;3.78;2.53;;;3.90;99.90;;;;;;5075375;28;20129;-59
2021/11/03 08:16:58;;;;;;;3.67;2.65;;;3.90;99.90;;;;;;5078846;28;20127;-59
2021/11/03 08:19:30;;;;;;;4.72;2.65;;;3.90;99.90;;;;;;5078248;28;20040;-58
2021/11/03 08:21:58;;;;;;;3.63;2.53;;;4.00;99.90;;;;;;5062716;28;20075;-58
2021/11/03 08:24:25;;;;;;;3.65;2.75;;;4.10;99.90;;;;;;5079086;28;20148;-58
2021/11/03 08:26:53;;;;;;;4.07;3.00;;;4.10;99.90;;;;;;5080210;28;20146;-59
2021/11/03 08:29:20;;;;;;;4.00;2.92;;;4.10;99.90;;;;;;5079501;28;20131;-58
2021/11/03 08:31:47;;;;;;;4.80;2.90;;;4.20;99.90;;;;;;5078535;28;20134;-58
2021/11/03 08:34:14;;;;;;;3.97;2.60;;;4.20;99.90;;;;;;5078012;28;20071;-58
2021/11/03 08:36:41;;;;;;;5.28;3.35;;;4.20;99.90;;;;;;5078119;28;20135;-59
2021/11/03 08:39:08;;;;;;;4.15;3.00;;;4.30;99.90;;;;;;5078494;28;20142;-58
2021/11/03 08:41:35;;;;;;;4.72;3.50;;;4.30;99.90;;;;;;5079418;28;20101;-58
2021/11/03 08:44:02;;;;;;;6.13;3.80;;;4.40;99.90;;;;;;5079086;28;20135;-58
2021/11/03 08:46:31;;;;;;;4.68;3.53;;;4.40;99.90;;;;;;5079175;28;20113;-59
2021/11/03 08:48:59;;;;;;;5.45;3.60;;;4.40;99.90;;;;;;5078824;28;20112;-58
2021/11/03 08:51:27;;;;;;;5.65;3.92;;;4.50;99.90;;;;;;5080031;28;20090;-59
2021/11/03 08:53:55;;;;;;;5.65;3.92;;;4.50;99.90;;;;;;5078818;28;20056;-59
2021/11/03 08:56:22;;;;;;;8.10;6.18;;;4.60;99.90;;;;;;5079631;28;20074;-58
2021/11/03 08:58:49;;;;;;;6.30;4.75;;;4.60;99.90;;;;;;5078439;28;20140;-59
2021/11/03 09:01:20;;;;;;;5.47;3.78;;;4.70;99.90;;;;;;5078136;28;20131;-59
2021/11/03 09:03:48;;;;;;;5.40;3.38;;;4.80;99.90;;;;;;5076880;28;20062;-57
2021/11/03 09:06:14;;;;;;;5.20;3.75;;;4.90;99.90;;;;;;5078285;28;20076;-59
2021/11/03 09:08:47;;;;;;;5.20;3.58;;;5.00;99.90;;;;;;5076451;28;20487;-58
2021/11/03 09:11:14;;;;;;;6.32;3.90;;;5.10;99.90;;;;;;5067755;28;20091;-58
2021/11/03 09:13:41;;;;;;;5.68;3.47;;;5.10;99.90;;;;;;5077041;28;20119;-58
2021/11/03 09:16:08;;;;;;;5.25;3.83;;;5.20;99.90;;;;;;5077245;28;20079;-58
2021/11/03 09:18:35;;;;;;;4.07;3.30;;;5.20;99.90;;;;;;5077259;28;20051;-59
2021/11/03 09:21:04;;;;;;;4.30;3.58;;;5.30;99.90;;;;;;5076573;28;20084;-58
2021/11/03 09:23:33;;;;;;;5.00;3.55;;;5.40;99.90;;;;;;5058222;28;20410;-58
2021/11/03 09:26:00;;;;;;;5.53;3.97;;;5.50;99.90;;;;;;5077131;28;20075;-58
2021/11/03 09:28:28;;;;;;;5.07;3.25;;;5.50;99.90;;;;;;5077177;28;20071;-58
2021/11/03 09:30:55;;;;;;;6.28;4.13;;;5.60;99.90;;;;;;5078864;28;20060;-58
2021/11/03 09:33:22;;;;;;;6.00;5.10;;;5.70;99.90;;;;;;5057504;28;20241;-59
2021/11/03 09:35:50;;;;;;;5.78;4.30;;;5.60;99.90;;;;;;5076935;28;20140;-58
2021/11/03 09:38:21;;;;;;;5.13;4.07;;;5.70;99.90;;;;;;5076894;28;20122;-58
2021/11/03 09:40:57;;;;;;;7.05;4.55;;;5.70;99.90;;;;;;5078107;28;20048;-58
2021/11/03 09:43:56;;;;;;;5.03;4.40;;;5.70;99.90;;;;;;5075432;28;20058;-57
2021/11/03 09:46:38;;;;;;;7.05;4.88;;;5.80;99.90;;;;;;5077785;28;20757;-57
2021/11/03 09:49:20;;;;;;;5.35;4.22;;;5.90;99.90;;;;;;5076163;28;20048;-58
2021/11/03 09:51:58;;;;;;;5.68;4.60;;;6.10;99.90;;;;;;5071678;28;20083;-58
2021/11/03 09:54:36;;;;;;;7.28;4.63;;;6.10;99.90;;;;;;5078538;28;20071;-58
2021/11/03 09:57:33;;;;;;;6.47;5.15;;;6.10;99.90;;;;;;5078370;28;20098;-58
2021/11/03 10:00:06;;;;;;;7.30;4.82;;;6.20;99.90;;;;;;5072978;28;20692;-58
2021/11/03 10:02:52;;;;;;;5.07;4.00;;;6.20;99.90;;;;;;5077766;28;20143;-58
2021/11/03 10:05:28;;;;;;;7.35;5.55;;;6.30;99.90;;;;;;5076183;28;20451;-58
2021/11/03 10:08:04;;;;;;;8.18;7.25;;;6.30;99.90;;;;;;5073976;28;20036;-57
2021/11/03 10:10:39;;;;;;;7.70;6.43;;;6.30;99.90;;;;;;5074654;28;20113;-57
2021/11/03 10:13:19;;;;;;;8.95;6.18;;;6.30;99.90;;;;;;5065098;28;20087;-58
2021/11/03 10:16:12;;;;;;;7.45;6.18;;;6.40;99.90;;;;;;5072536;28;20078;-59
2021/11/03 10:18:57;;;;;;;7.70;5.30;;;6.60;99.90;;;;;;5075400;28;20063;-58
2021/11/03 10:21:34;;;;;;;7.03;5.00;;;6.70;99.90;;;;;;5076194;28;20673;-57
2021/11/03 10:24:21;;;;;;;8.90;6.18;;;6.80;99.90;;;;;;5070767;28;20048;-58
2021/11/03 10:26:55;;;;;;;6.85;5.65;;;6.90;99.90;;;;;;5056353;28;20752;-58
2021/11/03 10:29:30;;;;;;;;;;;6.90;99.90;;;;;;5075889;28;20126;-58
2021/11/03 10:32:14;;;;;;;8.90;7.07;;;7.00;99.90;;;;;;5076462;28;19924;-58
2021/11/03 10:34:46;;;;;;;9.02;7.28;;;6.90;99.90;;;;;;5074703;28;20158;-58
2021/11/03 10:37:16;;;;;;;8.85;6.45;;;6.90;99.90;;;;;;5071852;28;20135;-58
2021/11/03 10:39:55;;;;;;;6.28;5.47;;;7.00;99.90;;;;;;5074317;28;20044;-58
2021/11/03 10:42:32;;;;;;;9.68;6.82;;;7.30;99.90;;;;;;5078087;28;20040;-58
2021/11/03 10:45:19;;;;;;;9.65;6.43;;;7.50;99.90;;;;;;5079925;28;20051;-58
2021/11/03 10:47:47;;;;;;;8.63;6.82;;;7.60;99.90;;;;;;5078299;28;20080;-58
2021/11/03 10:50:30;;;;;;;9.50;7.05;;;7.60;99.90;;;;;;5079070;28;20131;-58
2021/11/03 10:53:13;;;;;;;8.48;6.43;;;7.70;99.90;;;;;;5076794;28;20553;-57
2021/11/03 10:55:42;;;;;;;11.05;9.18;;;7.70;99.90;;;;;;5079280;28;20424;-57
2021/11/03 10:58:12;;;;;;;10.27;8.30;;;7.70;99.90;;;;;;5080107;28;20456;-58
2021/11/03 11:00:55;;;;;;;9.10;7.68;;;7.60;99.90;;;;;;5079600;28;20602;-58
2021/11/03 11:03:28;;;;;;;9.95;8.43;;;7.60;99.90;;;;;;5078345;28;20446;-58
2021/11/03 11:06:08;;;;;;;10.48;8.90;;;7.60;99.90;;;;;;5075679;28;20855;-60
2021/11/03 11:08:36;;;;;;;8.52;7.38;;;7.70;99.90;;;;;;5062615;28;20138;-60
2021/11/03 11:11:11;;;;;;;10.45;9.05;;;7.70;99.90;;;;;;5060681;28;20085;-60
2021/11/03 11:13:40;;;;;;;10.95;8.15;;;7.70;99.90;;;;;;5081198;28;20056;-57
2021/11/03 11:16:16;;;;;;;12.85;8.05;;;7.70;99.90;;;;;;5042356;28;20048;-58
2021/11/03 11:18:48;;;;;;;8.05;7.25;;;7.80;99.90;;;;;;5079669;28;20083;-60
2021/11/03 11:21:36;;;;;;;8.20;6.72;;;7.90;99.90;;;;;;5080835;28;20083;-57
2021/11/03 11:24:26;;;;;;;8.45;7.53;;;8.00;99.90;;;;;;5074285;28;20574;-58
2021/11/03 11:27:20;;;;;;;8.82;7.43;;;8.10;99.90;;;;;;5080775;28;20097;-57
2021/11/03 11:29:53;;;;;;;8.63;7.05;;;8.20;99.90;;;;;;5079205;28;20158;-57
2021/11/03 11:32:31;;;;;;;8.30;7.50;;;8.50;99.70;;;;;;5078652;28;20048;-57
2021/11/03 11:35:14;;;;;;;12.80;11.13;;;8.70;99.60;;;;;;5062687;28;20139;-57
2021/11/03 11:37:48;;;;;;;;;;;9.00;99.40;;;;;;5079729;28;20444;-57
2021/11/03 11:40:37;;;;;;;10.05;8.20;;;9.20;98.80;;;;;;5080943;28;20060;-57
2021/11/03 11:43:32;;;;;;;8.77;7.68;;;9.50;98.40;;;;;;5079099;28;20083;-58
2021/11/03 11:46:13;;;;;;;8.38;7.05;;;9.80;97.90;;;;;;5061905;28;20072;-57
2021/11/03 11:48:40;;;;;;;8.23;7.40;;;10.10;97.00;;;;;;5063226;28;20054;-58
2021/11/03 11:51:07;;;;;;;8.18;7.35;;;10.20;96.40;;;;;;5078072;28;20106;-57
2021/11/03 11:53:48;;;;;;;9.30;7.72;;;10.30;96.00;;;;;;5078631;28;20066;-60
2021/11/03 11:56:21;;;;;;;8.48;7.35;;;10.30;95.80;;;;;;5079423;28;20167;-60
2021/11/03 11:58:53;;;;;;;10.93;8.15;;;10.40;95.30;;;;;;5079421;28;20090;-59
2021/11/03 12:01:28;;;;;;;14.35;7.78;;;10.60;96.10;;;;;;5079969;28;20524;-59
2021/11/03 12:04:01;;;;;;;9.73;7.50;;;11.00;94.60;;;;;;5061508;28;20052;-59
2021/11/03 12:06:41;;;;;;;8.70;7.70;;;11.20;94.10;;;;;;5080069;28;20139;-60
2021/11/03 12:09:32;;;;;;;9.88;8.30;;;11.20;93.80;;;;;;5079439;28;20047;-60
2021/11/03 12:12:06;;;;;;;9.18;7.78;;;11.30;93.70;;;;;;5079871;28;20134;-60
2021/11/03 12:14:55;;;;;;;8.18;7.22;;;11.50;93.90;;;;;;5079410;28;22367;-59
2021/11/03 12:17:39;;;;;;;10.73;7.75;;;11.60;93.20;;;;;;5077869;28;20523;-60
2021/11/03 12:20:24;;;;;;;;;;;11.80;92.60;;;;;;5080997;28;20525;-57
2021/11/03 12:22:57;;;;;;;11.38;8.85;;;12.00;92.30;;;;;;5075306;28;19927;-60
2021/11/03 12:25:24;;;;;;;9.63;8.48;;;12.20;91.20;;;;;;5079244;28;20122;-59
2021/11/03 12:28:10;;;;;;;8.20;7.38;;;12.30;91.40;;;;;;5079857;28;20510;-59
2021/11/03 12:30:41;;;;;;;8.55;7.65;;;12.50;90.80;;;;;;5079283;28;20073;-60
2021/11/03 12:33:14;;;;;;;7.57;6.80;;;12.60;91.20;;;;;;5081826;28;20097;-59
2021/11/03 12:35:43;;;;;;;8.63;7.60;;;12.50;91.00;;;;;;5081880;28;20052;-59
2021/11/03 12:38:10;;;;;;;7.75;6.50;;;12.30;91.50;;;;;;5082611;28;20048;-60
2021/11/03 12:40:37;;;;;;;9.27;7.15;;;12.30;91.10;;;;;;5082366;28;20978;-60
2021/11/03 12:43:34;;;;;;;7.18;6.45;;;12.20;91.30;;;;;;5081577;28;20117;-59
2021/11/03 12:46:08;;;;;;;9.23;7.43;;;12.10;91.80;;;;;;5071506;28;20131;-58
2021/11/03 12:48:39;;;;;;;;;;;11.80;92.00;;;;;;5082299;28;20098;-58
2021/11/03 12:51:24;;;;;;;8.90;6.63;;;11.50;92.50;;;;;;5081720;28;19971;-58
2021/11/03 12:53:54;;;;;;;7.78;6.63;;;11.30;93.20;;;;;;5082537;28;20084;-57
2021/11/03 12:56:29;;;;;;;5.82;4.90;;;11.20;93.50;;;;;;5080857;28;20144;-57
2021/11/03 12:58:57;;;;;;;6.72;4.72;;;11.20;93.60;;;;;;5080506;28;20425;-57
2021/11/03 13:01:48;;;;;;;7.15;5.75;;;11.10;94.10;;;;;;5078745;28;20044;-57
2021/11/03 13:04:23;;;;;;;7.35;5.90;;;10.90;94.00;;;;;;5081095;28;21033;-57
2021/11/03 13:07:14;;;;;;;7.00;5.32;;;10.80;94.80;;;;;;5060388;28;20101;-58
2021/11/03 13:09:46;;;;;;;7.53;5.63;;;10.70;95.10;;;;;;5054898;28;20652;-57